sensor_id;sensor_type;location;lat;lon;timestamp;P1;durP1;ratioP1;P2;durP2;ratioP2
75971;SDS011;64651;47.540;19.088;2023-07-31T00:00:00;9.23;;;4.90;;
75971;SDS011;64651;47.540;19.088;2023-07-31T00:05:03;9.00;;;5.20;;
75971;SDS011;64651;47.540;19.088;2023-07-31T00:10:05;8.48;;;4.37;;
75971;SDS011;64651;47.540;19.088;2023-07-31T00:15:08;9.90;;;4.60;;
75971;SDS011;64651;47.540;19.088;2023-07-31T00:20:10;8.50;;;4.90;;
75971;SDS011;64651;47.540;19.088;2023-07-31T00:25:13;7.90;;;4.40;;
75971;SDS011;64651;47.540;19.088;2023-07-31T00:30:15;8.10;;;4.10;;
75971;SDS011;64651;47.540;19.088;2023-07-31T00:35:18;9.20;;;4.60;;
75971;SDS011;64651;47.540;19.088;2023-07-31T00:40:20;8.23;;;4.20;;
75971;SDS011;64651;47.540;19.088;2023-07-31T00:45:22;8.77;;;4.65;;
75971;SDS011;64651;47.540;19.088;2023-07-31T00:50:25;9.57;;;4.65;;
75971;SDS011;64651;47.540;19.088;2023-07-31T00:55:29;8.60;;;4.87;;
75971;SDS011;64651;47.540;19.088;2023-07-31T01:00:32;8.98;;;5.10;;
75971;SDS011;64651;47.540;19.088;2023-07-31T01:10:56;10.85;;;5.00;;
75971;SDS011;64651;47.540;19.088;2023-07-31T01:16:04;9.98;;;4.87;;
75971;SDS011;64651;47.540;19.088;2023-07-31T01:21:23;11.33;;;5.30;;
75971;SDS011;64651;47.540;19.088;2023-07-31T01:26:38;10.77;;;5.90;;
75971;SDS011;64651;47.540;19.088;2023-07-31T01:31:41;10.27;;;6.00;;
75971;SDS011;64651;47.540;19.088;2023-07-31T01:36:47;11.32;;;6.18;;
75971;SDS011;64651;47.540;19.088;2023-07-31T01:41:50;10.77;;;6.82;;
75971;SDS011;64651;47.540;19.088;2023-07-31T01:46:52;13.60;;;7.20;;
75971;SDS011;64651;47.540;19.088;2023-07-31T01:51:55;14.27;;;7.53;;
75971;SDS011;64651;47.540;19.088;2023-07-31T01:56:57;12.53;;;7.67;;
75971;SDS011;64651;47.540;19.088;2023-07-31T02:02:00;12.65;;;7.32;;
75971;SDS011;64651;47.540;19.088;2023-07-31T02:07:02;12.73;;;8.05;;
75971;SDS011;64651;47.540;19.088;2023-07-31T02:12:04;12.50;;;7.50;;
75971;SDS011;64651;47.540;19.088;2023-07-31T02:17:07;12.20;;;8.00;;
75971;SDS011;64651;47.540;19.088;2023-07-31T02:22:09;11.23;;;6.90;;
75971;SDS011;64651;47.540;19.088;2023-07-31T02:27:11;12.27;;;7.18;;
75971;SDS011;64651;47.540;19.088;2023-07-31T02:32:14;10.95;;;6.20;;
75971;SDS011;64651;47.540;19.088;2023-07-31T02:37:16;10.57;;;6.80;;
75971;SDS011;64651;47.540;19.088;2023-07-31T02:42:18;11.32;;;6.65;;
75971;SDS011;64651;47.540;19.088;2023-07-31T02:47:21;10.53;;;6.13;;
75971;SDS011;64651;47.540;19.088;2023-07-31T02:52:24;11.05;;;5.80;;
75971;SDS011;64651;47.540;19.088;2023-07-31T02:57:27;9.45;;;5.57;;
75971;SDS011;64651;47.540;19.088;2023-07-31T03:02:29;10.10;;;5.17;;
75971;SDS011;64651;47.540;19.088;2023-07-31T03:07:31;10.02;;;5.35;;
75971;SDS011;64651;47.540;19.088;2023-07-31T03:12:34;8.80;;;4.90;;
75971;SDS011;64651;47.540;19.088;2023-07-31T03:17:36;9.90;;;5.05;;
75971;SDS011;64651;47.540;19.088;2023-07-31T03:22:38;9.90;;;4.78;;
75971;SDS011;64651;47.540;19.088;2023-07-31T03:27:43;9.47;;;5.17;;
75971;SDS011;64651;47.540;19.088;2023-07-31T03:32:45;9.45;;;4.80;;
75971;SDS011;64651;47.540;19.088;2023-07-31T03:37:47;9.47;;;5.20;;
75971;SDS011;64651;47.540;19.088;2023-07-31T03:42:50;9.27;;;4.50;;
75971;SDS011;64651;47.540;19.088;2023-07-31T03:47:52;11.25;;;4.50;;
75971;SDS011;64651;47.540;19.088;2023-07-31T03:52:55;9.10;;;4.47;;
75971;SDS011;64651;47.540;19.088;2023-07-31T03:57:57;9.38;;;4.53;;
75971;SDS011;64651;47.540;19.088;2023-07-31T04:02:59;9.97;;;4.60;;
75971;SDS011;64651;47.540;19.088;2023-07-31T04:08:02;7.35;;;3.65;;
75971;SDS011;64651;47.540;19.088;2023-07-31T04:13:07;8.95;;;4.40;;
75971;SDS011;64651;47.540;19.088;2023-07-31T04:18:09;8.07;;;4.20;;
75971;SDS011;64651;47.540;19.088;2023-07-31T04:23:12;7.43;;;3.85;;
75971;SDS011;64651;47.540;19.088;2023-07-31T04:28:14;9.43;;;3.70;;
75971;SDS011;64651;47.540;19.088;2023-07-31T04:33:16;7.75;;;3.58;;
75971;SDS011;64651;47.540;19.088;2023-07-31T04:38:20;8.02;;;3.37;;
75971;SDS011;64651;47.540;19.088;2023-07-31T04:43:23;8.10;;;3.90;;
75971;SDS011;64651;47.540;19.088;2023-07-31T04:48:25;8.45;;;3.90;;
75971;SDS011;64651;47.540;19.088;2023-07-31T04:53:27;11.10;;;3.90;;
75971;SDS011;64651;47.540;19.088;2023-07-31T04:58:30;7.25;;;3.65;;
75971;SDS011;64651;47.540;19.088;2023-07-31T05:03:32;8.65;;;3.17;;
75971;SDS011;64651;47.540;19.088;2023-07-31T05:08:35;7.13;;;3.20;;
75971;SDS011;64651;47.540;19.088;2023-07-31T05:13:37;8.70;;;3.40;;
75971;SDS011;64651;47.540;19.088;2023-07-31T05:18:40;8.03;;;3.23;;
75971;SDS011;64651;47.540;19.088;2023-07-31T05:23:42;7.78;;;3.17;;
75971;SDS011;64651;47.540;19.088;2023-07-31T05:28:44;7.25;;;2.90;;
75971;SDS011;64651;47.540;19.088;2023-07-31T05:33:46;7.87;;;2.97;;
75971;SDS011;64651;47.540;19.088;2023-07-31T05:38:49;8.00;;;3.10;;
75971;SDS011;64651;47.540;19.088;2023-07-31T05:43:57;8.67;;;2.80;;
75971;SDS011;64651;47.540;19.088;2023-07-31T05:49:01;7.90;;;2.97;;
75971;SDS011;64651;47.540;19.088;2023-07-31T05:54:03;8.18;;;3.50;;
75971;SDS011;64651;47.540;19.088;2023-07-31T05:59:06;5.80;;;2.60;;
75971;SDS011;64651;47.540;19.088;2023-07-31T06:04:09;7.18;;;2.87;;
75971;SDS011;64651;47.540;19.088;2023-07-31T06:09:11;6.80;;;2.60;;
75971;SDS011;64651;47.540;19.088;2023-07-31T06:14:14;6.80;;;2.60;;
75971;SDS011;64651;47.540;19.088;2023-07-31T06:19:16;7.03;;;2.40;;
75971;SDS011;64651;47.540;19.088;2023-07-31T06:24:18;6.63;;;2.53;;
75971;SDS011;64651;47.540;19.088;2023-07-31T06:29:22;6.57;;;2.65;;
75971;SDS011;64651;47.540;19.088;2023-07-31T06:34:24;6.97;;;2.57;;
75971;SDS011;64651;47.540;19.088;2023-07-31T06:39:28;9.23;;;2.62;;
75971;SDS011;64651;47.540;19.088;2023-07-31T06:44:30;6.75;;;2.67;;
75971;SDS011;64651;47.540;19.088;2023-07-31T06:49:33;7.03;;;3.17;;
75971;SDS011;64651;47.540;19.088;2023-07-31T06:54:42;7.25;;;2.78;;
75971;SDS011;64651;47.540;19.088;2023-07-31T06:59:44;7.50;;;2.80;;
75971;SDS011;64651;47.540;19.088;2023-07-31T07:04:46;8.20;;;2.75;;
75971;SDS011;64651;47.540;19.088;2023-07-31T07:09:49;7.22;;;2.75;;
75971;SDS011;64651;47.540;19.088;2023-07-31T07:14:51;8.43;;;2.67;;
75971;SDS011;64651;47.540;19.088;2023-07-31T07:19:54;6.93;;;2.70;;
75971;SDS011;64651;47.540;19.088;2023-07-31T07:24:57;7.90;;;3.40;;
75971;SDS011;64651;47.540;19.088;2023-07-31T07:30:00;7.28;;;3.03;;
75971;SDS011;64651;47.540;19.088;2023-07-31T07:35:03;7.93;;;3.10;;
75971;SDS011;64651;47.540;19.088;2023-07-31T07:40:06;7.97;;;2.97;;
75971;SDS011;64651;47.540;19.088;2023-07-31T07:45:09;6.87;;;2.87;;
75971;SDS011;64651;47.540;19.088;2023-07-31T07:50:11;7.40;;;2.73;;
75971;SDS011;64651;47.540;19.088;2023-07-31T07:55:14;9.05;;;3.62;;
75971;SDS011;64651;47.540;19.088;2023-07-31T08:00:17;6.60;;;3.00;;
75971;SDS011;64651;47.540;19.088;2023-07-31T08:05:20;7.67;;;2.90;;
75971;SDS011;64651;47.540;19.088;2023-07-31T08:10:22;6.70;;;2.87;;
75971;SDS011;64651;47.540;19.088;2023-07-31T08:15:24;9.23;;;3.70;;
75971;SDS011;64651;47.540;19.088;2023-07-31T08:20:27;9.70;;;3.62;;
75971;SDS011;64651;47.540;19.088;2023-07-31T08:25:29;7.25;;;3.87;;
75971;SDS011;64651;47.540;19.088;2023-07-31T08:30:32;6.30;;;4.33;;
75971;SDS011;64651;47.540;19.088;2023-07-31T08:35:37;7.47;;;5.03;;
75971;SDS011;64651;47.540;19.088;2023-07-31T08:40:40;7.30;;;4.90;;
75971;SDS011;64651;47.540;19.088;2023-07-31T08:45:42;9.27;;;5.70;;
75971;SDS011;64651;47.540;19.088;2023-07-31T08:50:46;9.18;;;5.87;;
75971;SDS011;64651;47.540;19.088;2023-07-31T08:55:48;9.67;;;6.13;;
75971;SDS011;64651;47.540;19.088;2023-07-31T09:00:51;8.93;;;7.00;;
75971;SDS011;64651;47.540;19.088;2023-07-31T09:05:55;8.03;;;6.80;;
75971;SDS011;64651;47.540;19.088;2023-07-31T09:11:00;11.05;;;7.30;;
75971;SDS011;64651;47.540;19.088;2023-07-31T09:16:04;8.63;;;6.07;;
75971;SDS011;64651;47.540;19.088;2023-07-31T09:21:07;7.93;;;6.27;;
75971;SDS011;64651;47.540;19.088;2023-07-31T09:26:09;9.32;;;6.82;;
75971;SDS011;64651;47.540;19.088;2023-07-31T09:31:12;8.30;;;6.37;;
75971;SDS011;64651;47.540;19.088;2023-07-31T09:36:14;8.65;;;5.68;;
75971;SDS011;64651;47.540;19.088;2023-07-31T09:41:17;8.95;;;6.65;;
75971;SDS011;64651;47.540;19.088;2023-07-31T09:46:20;8.73;;;6.47;;
75971;SDS011;64651;47.540;19.088;2023-07-31T09:51:28;9.55;;;6.72;;
75971;SDS011;64651;47.540;19.088;2023-07-31T09:56:32;9.97;;;6.27;;
75971;SDS011;64651;47.540;19.088;2023-07-31T10:01:35;9.02;;;6.75;;
75971;SDS011;64651;47.540;19.088;2023-07-31T10:06:38;10.65;;;5.65;;
75971;SDS011;64651;47.540;19.088;2023-07-31T10:11:44;9.63;;;6.57;;
75971;SDS011;64651;47.540;19.088;2023-07-31T10:16:52;8.63;;;6.32;;
75971;SDS011;64651;47.540;19.088;2023-07-31T10:21:55;11.97;;;6.33;;
75971;SDS011;64651;47.540;19.088;2023-07-31T10:27:00;8.63;;;6.05;;
75971;SDS011;64651;47.540;19.088;2023-07-31T10:32:04;8.40;;;6.22;;
75971;SDS011;64651;47.540;19.088;2023-07-31T10:37:27;8.83;;;6.13;;
75971;SDS011;64651;47.540;19.088;2023-07-31T10:42:38;10.23;;;6.70;;
75971;SDS011;64651;47.540;19.088;2023-07-31T10:47:51;8.87;;;6.37;;
75971;SDS011;64651;47.540;19.088;2023-07-31T10:53:01;8.05;;;6.20;;
75971;SDS011;64651;47.540;19.088;2023-07-31T10:58:12;9.15;;;6.93;;
75971;SDS011;64651;47.540;19.088;2023-07-31T11:03:16;11.17;;;7.93;;
75971;SDS011;64651;47.540;19.088;2023-07-31T11:08:21;9.13;;;6.68;;
75971;SDS011;64651;47.540;19.088;2023-07-31T11:13:27;8.30;;;6.50;;
75971;SDS011;64651;47.540;19.088;2023-07-31T11:18:42;9.25;;;5.97;;
75971;SDS011;64651;47.540;19.088;2023-07-31T11:23:46;8.88;;;7.00;;
75971;SDS011;64651;47.540;19.088;2023-07-31T11:28:49;8.87;;;6.87;;
75971;SDS011;64651;47.540;19.088;2023-07-31T11:34:03;9.98;;;7.28;;
75971;SDS011;64651;47.540;19.088;2023-07-31T11:39:10;8.53;;;6.80;;
75971;SDS011;64651;47.540;19.088;2023-07-31T11:44:12;9.05;;;6.97;;
75971;SDS011;64651;47.540;19.088;2023-07-31T11:49:28;9.13;;;7.32;;
75971;SDS011;64651;47.540;19.088;2023-07-31T11:54:31;8.50;;;7.03;;
75971;SDS011;64651;47.540;19.088;2023-07-31T11:59:33;10.38;;;8.02;;
75971;SDS011;64651;47.540;19.088;2023-07-31T12:04:36;8.27;;;7.10;;
75971;SDS011;64651;47.540;19.088;2023-07-31T12:09:38;8.60;;;7.60;;
75971;SDS011;64651;47.540;19.088;2023-07-31T12:14:52;9.05;;;8.13;;
75971;SDS011;64651;47.540;19.088;2023-07-31T12:19:54;11.47;;;8.27;;
75971;SDS011;64651;47.540;19.088;2023-07-31T12:24:56;10.15;;;8.55;;
75971;SDS011;64651;47.540;19.088;2023-07-31T12:29:59;10.17;;;9.17;;
75971;SDS011;64651;47.540;19.088;2023-07-31T12:35:05;9.95;;;8.45;;
75971;SDS011;64651;47.540;19.088;2023-07-31T12:40:08;9.55;;;8.55;;
75971;SDS011;64651;47.540;19.088;2023-07-31T12:45:11;10.10;;;9.13;;
75971;SDS011;64651;47.540;19.088;2023-07-31T12:50:13;12.52;;;10.00;;
75971;SDS011;64651;47.540;19.088;2023-07-31T12:55:15;10.53;;;9.53;;
75971;SDS011;64651;47.540;19.088;2023-07-31T13:00:18;10.60;;;8.98;;
75971;SDS011;64651;47.540;19.088;2023-07-31T13:05:21;9.15;;;7.65;;
75971;SDS011;64651;47.540;19.088;2023-07-31T13:10:23;9.70;;;8.00;;
75971;SDS011;64651;47.540;19.088;2023-07-31T13:15:26;10.77;;;9.30;;
75971;SDS011;64651;47.540;19.088;2023-07-31T13:20:28;9.50;;;8.20;;
75971;SDS011;64651;47.540;19.088;2023-07-31T13:25:30;9.80;;;8.05;;
75971;SDS011;64651;47.540;19.088;2023-07-31T13:30:32;10.45;;;8.13;;
75971;SDS011;64651;47.540;19.088;2023-07-31T13:35:35;9.13;;;8.23;;
75971;SDS011;64651;47.540;19.088;2023-07-31T13:40:37;10.43;;;9.45;;
75971;SDS011;64651;47.540;19.088;2023-07-31T13:45:39;9.97;;;9.00;;
75971;SDS011;64651;47.540;19.088;2023-07-31T13:50:42;8.80;;;7.90;;
75971;SDS011;64651;47.540;19.088;2023-07-31T13:55:44;8.73;;;7.82;;
75971;SDS011;64651;47.540;19.088;2023-07-31T14:00:47;9.33;;;8.33;;
75971;SDS011;64651;47.540;19.088;2023-07-31T14:05:50;8.93;;;6.72;;
75971;SDS011;64651;47.540;19.088;2023-07-31T14:10:53;9.47;;;7.00;;
75971;SDS011;64651;47.540;19.088;2023-07-31T14:15:56;9.23;;;6.85;;
75971;SDS011;64651;47.540;19.088;2023-07-31T14:20:58;8.18;;;5.80;;
75971;SDS011;64651;47.540;19.088;2023-07-31T14:26:00;8.63;;;5.90;;
75971;SDS011;64651;47.540;19.088;2023-07-31T14:31:03;7.60;;;5.80;;
75971;SDS011;64651;47.540;19.088;2023-07-31T14:36:15;8.73;;;4.53;;
75971;SDS011;64651;47.540;19.088;2023-07-31T14:41:17;8.02;;;5.20;;
75971;SDS011;64651;47.540;19.088;2023-07-31T14:46:20;7.65;;;5.82;;
75971;SDS011;64651;47.540;19.088;2023-07-31T14:51:22;9.93;;;5.47;;
75971;SDS011;64651;47.540;19.088;2023-07-31T14:56:24;9.25;;;6.75;;
75971;SDS011;64651;47.540;19.088;2023-07-31T15:01:29;10.13;;;6.30;;
75971;SDS011;64651;47.540;19.088;2023-07-31T15:06:32;8.65;;;6.57;;
75971;SDS011;64651;47.540;19.088;2023-07-31T15:11:34;8.93;;;6.22;;
75971;SDS011;64651;47.540;19.088;2023-07-31T15:16:36;9.03;;;6.10;;
75971;SDS011;64651;47.540;19.088;2023-07-31T15:21:39;8.38;;;6.25;;
75971;SDS011;64651;47.540;19.088;2023-07-31T15:26:41;8.30;;;5.57;;
75971;SDS011;64651;47.540;19.088;2023-07-31T15:31:44;8.05;;;5.37;;
75971;SDS011;64651;47.540;19.088;2023-07-31T15:36:47;8.38;;;5.22;;
75971;SDS011;64651;47.540;19.088;2023-07-31T15:41:50;7.23;;;5.00;;
75971;SDS011;64651;47.540;19.088;2023-07-31T15:46:52;7.60;;;5.78;;
75971;SDS011;64651;47.540;19.088;2023-07-31T15:51:54;9.60;;;6.30;;
75971;SDS011;64651;47.540;19.088;2023-07-31T15:56:57;7.70;;;5.15;;
75971;SDS011;64651;47.540;19.088;2023-07-31T16:01:59;7.40;;;4.93;;
75971;SDS011;64651;47.540;19.088;2023-07-31T16:07:01;6.80;;;4.70;;
75971;SDS011;64651;47.540;19.088;2023-07-31T16:12:04;8.75;;;5.55;;
75971;SDS011;64651;47.540;19.088;2023-07-31T16:17:08;7.70;;;5.13;;
75971;SDS011;64651;47.540;19.088;2023-07-31T16:22:11;7.80;;;4.37;;
75971;SDS011;64651;47.540;19.088;2023-07-31T16:27:13;9.73;;;5.50;;
75971;SDS011;64651;47.540;19.088;2023-07-31T16:32:15;9.27;;;5.40;;
75971;SDS011;64651;47.540;19.088;2023-07-31T16:37:18;7.55;;;4.97;;
75971;SDS011;64651;47.540;19.088;2023-07-31T16:42:20;7.17;;;4.90;;
75971;SDS011;64651;47.540;19.088;2023-07-31T16:47:24;9.63;;;4.70;;
75971;SDS011;64651;47.540;19.088;2023-07-31T16:52:26;9.35;;;3.92;;
75971;SDS011;64651;47.540;19.088;2023-07-31T16:57:29;8.40;;;3.80;;
75971;SDS011;64651;47.540;19.088;2023-07-31T17:02:32;7.82;;;3.72;;
75971;SDS011;64651;47.540;19.088;2023-07-31T17:07:34;6.60;;;3.60;;
75971;SDS011;64651;47.540;19.088;2023-07-31T17:12:36;7.40;;;3.47;;
75971;SDS011;64651;47.540;19.088;2023-07-31T17:17:39;6.50;;;3.15;;
75971;SDS011;64651;47.540;19.088;2023-07-31T17:22:41;8.60;;;2.90;;
75971;SDS011;64651;47.540;19.088;2023-07-31T17:27:50;9.05;;;3.95;;
75971;SDS011;64651;47.540;19.088;2023-07-31T17:32:54;7.53;;;3.60;;
75971;SDS011;64651;47.540;19.088;2023-07-31T17:37:56;7.78;;;3.50;;
75971;SDS011;64651;47.540;19.088;2023-07-31T17:43:00;7.32;;;3.78;;
75971;SDS011;64651;47.540;19.088;2023-07-31T17:48:02;6.47;;;3.17;;
75971;SDS011;64651;47.540;19.088;2023-07-31T17:53:04;6.60;;;3.40;;
75971;SDS011;64651;47.540;19.088;2023-07-31T17:58:08;7.40;;;3.50;;
75971;SDS011;64651;47.540;19.088;2023-07-31T18:03:10;7.22;;;3.58;;
75971;SDS011;64651;47.540;19.088;2023-07-31T18:08:14;6.80;;;2.70;;
75971;SDS011;64651;47.540;19.088;2023-07-31T18:13:17;7.57;;;3.33;;
75971;SDS011;64651;47.540;19.088;2023-07-31T18:18:19;6.78;;;2.87;;
75971;SDS011;64651;47.540;19.088;2023-07-31T18:23:22;7.00;;;2.93;;
75971;SDS011;64651;47.540;19.088;2023-07-31T18:28:24;8.30;;;4.18;;
75971;SDS011;64651;47.540;19.088;2023-07-31T18:33:27;9.02;;;2.83;;
75971;SDS011;64651;47.540;19.088;2023-07-31T18:38:29;8.00;;;3.20;;
75971;SDS011;64651;47.540;19.088;2023-07-31T18:43:34;11.27;;;3.22;;
75971;SDS011;64651;47.540;19.088;2023-07-31T18:48:37;8.37;;;2.70;;
75971;SDS011;64651;47.540;19.088;2023-07-31T18:53:39;10.45;;;3.12;;
75971;SDS011;64651;47.540;19.088;2023-07-31T18:58:42;8.90;;;2.67;;
75971;SDS011;64651;47.540;19.088;2023-07-31T19:03:44;6.67;;;2.60;;
75971;SDS011;64651;47.540;19.088;2023-07-31T19:08:46;6.32;;;2.60;;
75971;SDS011;64651;47.540;19.088;2023-07-31T19:13:49;6.77;;;2.40;;
75971;SDS011;64651;47.540;19.088;2023-07-31T19:18:52;6.68;;;2.50;;
75971;SDS011;64651;47.540;19.088;2023-07-31T19:23:55;7.87;;;2.90;;
75971;SDS011;64651;47.540;19.088;2023-07-31T19:28:58;6.40;;;2.60;;
75971;SDS011;64651;47.540;19.088;2023-07-31T19:34:00;8.75;;;2.70;;
75971;SDS011;64651;47.540;19.088;2023-07-31T19:39:02;7.53;;;3.00;;
75971;SDS011;64651;47.540;19.088;2023-07-31T19:44:05;6.93;;;3.05;;
75971;SDS011;64651;47.540;19.088;2023-07-31T19:49:08;6.93;;;2.60;;
75971;SDS011;64651;47.540;19.088;2023-07-31T19:54:10;13.40;;;7.10;;
75971;SDS011;64651;47.540;19.088;2023-07-31T19:59:12;9.57;;;4.30;;
75971;SDS011;64651;47.540;19.088;2023-07-31T20:04:15;8.13;;;2.77;;
75971;SDS011;64651;47.540;19.088;2023-07-31T20:09:17;7.37;;;2.67;;
75971;SDS011;64651;47.540;19.088;2023-07-31T20:14:19;7.20;;;2.83;;
75971;SDS011;64651;47.540;19.088;2023-07-31T20:19:21;7.40;;;3.13;;
75971;SDS011;64651;47.540;19.088;2023-07-31T20:24:24;8.50;;;3.20;;
75971;SDS011;64651;47.540;19.088;2023-07-31T20:29:26;6.80;;;2.97;;
75971;SDS011;64651;47.540;19.088;2023-07-31T20:34:28;8.98;;;3.00;;
75971;SDS011;64651;47.540;19.088;2023-07-31T20:39:34;8.95;;;3.85;;
75971;SDS011;64651;47.540;19.088;2023-07-31T20:44:36;7.90;;;3.60;;
75971;SDS011;64651;47.540;19.088;2023-07-31T20:49:38;9.60;;;4.47;;
75971;SDS011;64651;47.540;19.088;2023-07-31T20:54:40;8.83;;;4.40;;
75971;SDS011;64651;47.540;19.088;2023-07-31T20:59:43;9.88;;;4.75;;
75971;SDS011;64651;47.540;19.088;2023-07-31T21:04:45;11.43;;;5.18;;
75971;SDS011;64651;47.540;19.088;2023-07-31T21:09:49;9.30;;;3.93;;
75971;SDS011;64651;47.540;19.088;2023-07-31T21:14:51;9.55;;;3.53;;
75971;SDS011;64651;47.540;19.088;2023-07-31T21:19:54;10.73;;;3.80;;
75971;SDS011;64651;47.540;19.088;2023-07-31T21:24:57;13.18;;;3.97;;
75971;SDS011;64651;47.540;19.088;2023-07-31T21:30:00;9.60;;;3.80;;
75971;SDS011;64651;47.540;19.088;2023-07-31T21:35:02;8.93;;;4.30;;
75971;SDS011;64651;47.540;19.088;2023-07-31T21:40:06;10.68;;;4.85;;
75971;SDS011;64651;47.540;19.088;2023-07-31T21:45:08;11.73;;;4.77;;
75971;SDS011;64651;47.540;19.088;2023-07-31T21:50:11;9.77;;;3.90;;
75971;SDS011;64651;47.540;19.088;2023-07-31T21:55:13;10.90;;;4.50;;
75971;SDS011;64651;47.540;19.088;2023-07-31T22:00:18;9.93;;;4.13;;
75971;SDS011;64651;47.540;19.088;2023-07-31T22:05:21;11.55;;;4.40;;
75971;SDS011;64651;47.540;19.088;2023-07-31T22:10:29;8.70;;;3.97;;
75971;SDS011;64651;47.540;19.088;2023-07-31T22:15:31;12.43;;;4.37;;
75971;SDS011;64651;47.540;19.088;2023-07-31T22:20:33;10.35;;;3.47;;
75971;SDS011;64651;47.540;19.088;2023-07-31T22:25:36;9.70;;;3.17;;
75971;SDS011;64651;47.540;19.088;2023-07-31T22:30:38;8.40;;;3.40;;
75971;SDS011;64651;47.540;19.088;2023-07-31T22:35:40;7.20;;;3.17;;
75971;SDS011;64651;47.540;19.088;2023-07-31T22:40:43;9.23;;;3.10;;
75971;SDS011;64651;47.540;19.088;2023-07-31T22:45:45;10.90;;;3.30;;
75971;SDS011;64651;47.540;19.088;2023-07-31T22:50:48;8.17;;;3.40;;
75971;SDS011;64651;47.540;19.088;2023-07-31T22:55:50;10.10;;;4.28;;
75971;SDS011;64651;47.540;19.088;2023-07-31T23:01:03;9.50;;;3.80;;
75971;SDS011;64651;47.540;19.088;2023-07-31T23:06:07;9.45;;;3.97;;
75971;SDS011;64651;47.540;19.088;2023-07-31T23:11:09;9.55;;;3.83;;
75971;SDS011;64651;47.540;19.088;2023-07-31T23:16:13;8.53;;;3.63;;
75971;SDS011;64651;47.540;19.088;2023-07-31T23:21:15;9.07;;;3.40;;
75971;SDS011;64651;47.540;19.088;2023-07-31T23:26:18;10.43;;;3.57;;
75971;SDS011;64651;47.540;19.088;2023-07-31T23:31:20;7.82;;;2.72;;
75971;SDS011;64651;47.540;19.088;2023-07-31T23:36:24;9.15;;;3.10;;
75971;SDS011;64651;47.540;19.088;2023-07-31T23:41:26;8.90;;;3.93;;
75971;SDS011;64651;47.540;19.088;2023-07-31T23:46:28;9.20;;;3.62;;
75971;SDS011;64651;47.540;19.088;2023-07-31T23:51:30;9.13;;;3.60;;
75971;SDS011;64651;47.540;19.088;2023-07-31T23:56:40;11.23;;;4.03;;
